sensor_id;sensor_type;location;lat;lon;timestamp;temperature;humidity
15947;DHT22;8072;52.554;7.966;2023-06-26T00:01:06;22.00;99.90
15947;DHT22;8072;52.554;7.966;2023-06-26T00:03:33;22.00;99.90
15947;DHT22;8072;52.554;7.966;2023-06-26T00:05:59;21.90;99.90
15947;DHT22;8072;52.554;7.966;2023-06-26T00:08:26;21.90;99.90
15947;DHT22;8072;52.554;7.966;2023-06-26T00:10:52;21.90;99.90
15947;DHT22;8072;52.554;7.966;2023-06-26T00:13:18;21.90;99.90
15947;DHT22;8072;52.554;7.966;2023-06-26T00:15:44;21.90;99.90
15947;DHT22;8072;52.554;7.966;2023-06-26T00:18:10;21.90;99.90
15947;DHT22;8072;52.554;7.966;2023-06-26T00:20:36;21.80;99.90
15947;DHT22;8072;52.554;7.966;2023-06-26T00:23:02;21.80;99.90
15947;DHT22;8072;52.554;7.966;2023-06-26T00:25:33;21.80;99.90
15947;DHT22;8072;52.554;7.966;2023-06-26T00:27:58;21.70;99.90
15947;DHT22;8072;52.554;7.966;2023-06-26T00:30:25;21.70;99.90
15947;DHT22;8072;52.554;7.966;2023-06-26T00:32:50;21.60;99.90
15947;DHT22;8072;52.554;7.966;2023-06-26T00:35:17;21.50;99.90
15947;DHT22;8072;52.554;7.966;2023-06-26T00:37:42;21.40;99.90
15947;DHT22;8072;52.554;7.966;2023-06-26T00:40:09;21.40;99.90
15947;DHT22;8072;52.554;7.966;2023-06-26T00:42:35;21.30;99.90
15947;DHT22;8072;52.554;7.966;2023-06-26T00:45:00;21.30;99.90
15947;DHT22;8072;52.554;7.966;2023-06-26T00:47:26;21.20;99.90
15947;DHT22;8072;52.554;7.966;2023-06-26T00:49:53;21.20;99.90
15947;DHT22;8072;52.554;7.966;2023-06-26T00:52:20;21.20;99.90
15947;DHT22;8072;52.554;7.966;2023-06-26T00:54:46;21.20;99.90
15947;DHT22;8072;52.554;7.966;2023-06-26T00:57:12;21.20;99.90
15947;DHT22;8072;52.554;7.966;2023-06-26T00:59:38;21.20;99.90
15947;DHT22;8072;52.554;7.966;2023-06-26T01:02:04;21.20;99.90
15947;DHT22;8072;52.554;7.966;2023-06-26T01:04:31;21.20;99.90
15947;DHT22;8072;52.554;7.966;2023-06-26T01:06:59;21.20;99.90
15947;DHT22;8072;52.554;7.966;2023-06-26T01:09:25;21.20;99.90
15947;DHT22;8072;52.554;7.966;2023-06-26T01:11:51;21.20;99.90
15947;DHT22;8072;52.554;7.966;2023-06-26T01:14:18;21.20;99.90
15947;DHT22;8072;52.554;7.966;2023-06-26T01:16:44;21.20;99.90
15947;DHT22;8072;52.554;7.966;2023-06-26T01:19:39;21.20;99.90
15947;DHT22;8072;52.554;7.966;2023-06-26T01:22:23;21.20;99.90
15947;DHT22;8072;52.554;7.966;2023-06-26T01:27:27;21.20;99.90
15947;DHT22;8072;52.554;7.966;2023-06-26T01:29:54;21.10;99.90
15947;DHT22;8072;52.554;7.966;2023-06-26T01:32:21;21.10;99.90
15947;DHT22;8072;52.554;7.966;2023-06-26T01:34:47;21.10;99.90
15947;DHT22;8072;52.554;7.966;2023-06-26T01:37:13;21.10;99.90
15947;DHT22;8072;52.554;7.966;2023-06-26T01:39:39;21.10;99.90
15947;DHT22;8072;52.554;7.966;2023-06-26T01:42:05;21.00;99.90
15947;DHT22;8072;52.554;7.966;2023-06-26T01:44:36;21.00;99.90
15947;DHT22;8072;52.554;7.966;2023-06-26T01:47:05;21.00;99.90
15947;DHT22;8072;52.554;7.966;2023-06-26T01:52:34;21.00;99.90
15947;DHT22;8072;52.554;7.966;2023-06-26T01:55:40;20.90;99.90
15947;DHT22;8072;52.554;7.966;2023-06-26T01:58:08;20.90;99.90
15947;DHT22;8072;52.554;7.966;2023-06-26T02:00:35;20.90;99.90
15947;DHT22;8072;52.554;7.966;2023-06-26T02:03:02;20.80;99.90
15947;DHT22;8072;52.554;7.966;2023-06-26T02:05:30;20.80;99.90
15947;DHT22;8072;52.554;7.966;2023-06-26T02:07:56;20.80;99.90
15947;DHT22;8072;52.554;7.966;2023-06-26T02:10:22;20.70;99.90
15947;DHT22;8072;52.554;7.966;2023-06-26T02:12:48;20.70;99.90
15947;DHT22;8072;52.554;7.966;2023-06-26T02:15:13;20.70;99.90
15947;DHT22;8072;52.554;7.966;2023-06-26T02:17:39;20.70;99.90
15947;DHT22;8072;52.554;7.966;2023-06-26T02:20:06;20.70;99.90
15947;DHT22;8072;52.554;7.966;2023-06-26T02:22:33;20.70;99.90
15947;DHT22;8072;52.554;7.966;2023-06-26T02:24:59;20.70;99.90
15947;DHT22;8072;52.554;7.966;2023-06-26T02:27:24;20.60;99.90
15947;DHT22;8072;52.554;7.966;2023-06-26T02:29:51;20.60;99.90
15947;DHT22;8072;52.554;7.966;2023-06-26T02:32:17;20.60;99.90
15947;DHT22;8072;52.554;7.966;2023-06-26T02:34:43;20.60;99.90
15947;DHT22;8072;52.554;7.966;2023-06-26T02:37:09;20.60;99.90
15947;DHT22;8072;52.554;7.966;2023-06-26T02:39:35;20.60;99.90
15947;DHT22;8072;52.554;7.966;2023-06-26T02:42:02;20.60;99.90
15947;DHT22;8072;52.554;7.966;2023-06-26T02:44:28;20.60;99.90
15947;DHT22;8072;52.554;7.966;2023-06-26T02:46:54;20.60;99.90
15947;DHT22;8072;52.554;7.966;2023-06-26T02:49:20;20.50;99.90
15947;DHT22;8072;52.554;7.966;2023-06-26T02:51:46;20.50;99.90
15947;DHT22;8072;52.554;7.966;2023-06-26T02:54:11;20.50;99.90
15947;DHT22;8072;52.554;7.966;2023-06-26T02:56:37;20.50;99.90
15947;DHT22;8072;52.554;7.966;2023-06-26T02:59:05;20.40;99.90
15947;DHT22;8072;52.554;7.966;2023-06-26T03:01:30;20.50;99.90
15947;DHT22;8072;52.554;7.966;2023-06-26T03:03:56;20.40;99.90
15947;DHT22;8072;52.554;7.966;2023-06-26T03:06:22;20.40;99.90
15947;DHT22;8072;52.554;7.966;2023-06-26T03:08:48;20.30;99.90
15947;DHT22;8072;52.554;7.966;2023-06-26T03:11:14;20.30;99.90
15947;DHT22;8072;52.554;7.966;2023-06-26T03:13:40;20.20;99.90
15947;DHT22;8072;52.554;7.966;2023-06-26T03:16:05;20.20;99.90
15947;DHT22;8072;52.554;7.966;2023-06-26T03:18:31;20.20;99.90
15947;DHT22;8072;52.554;7.966;2023-06-26T03:20:59;20.20;99.90
15947;DHT22;8072;52.554;7.966;2023-06-26T03:23:25;20.20;99.90
15947;DHT22;8072;52.554;7.966;2023-06-26T03:25:51;20.10;99.90
15947;DHT22;8072;52.554;7.966;2023-06-26T03:28:17;20.10;99.90
15947;DHT22;8072;52.554;7.966;2023-06-26T03:30:43;20.10;99.90
15947;DHT22;8072;52.554;7.966;2023-06-26T03:33:09;20.00;99.90
15947;DHT22;8072;52.554;7.966;2023-06-26T03:35:35;20.00;99.90
15947;DHT22;8072;52.554;7.966;2023-06-26T03:38:01;20.00;99.90
15947;DHT22;8072;52.554;7.966;2023-06-26T03:40:27;20.00;99.90
15947;DHT22;8072;52.554;7.966;2023-06-26T03:42:53;20.00;99.90
15947;DHT22;8072;52.554;7.966;2023-06-26T03:45:19;20.00;99.90
15947;DHT22;8072;52.554;7.966;2023-06-26T03:47:45;20.00;99.90
15947;DHT22;8072;52.554;7.966;2023-06-26T03:50:17;20.00;99.90
15947;DHT22;8072;52.554;7.966;2023-06-26T03:52:43;20.00;99.90
15947;DHT22;8072;52.554;7.966;2023-06-26T03:55:10;20.00;99.90
15947;DHT22;8072;52.554;7.966;2023-06-26T03:57:36;20.00;99.90
15947;DHT22;8072;52.554;7.966;2023-06-26T04:00:03;20.00;99.90
15947;DHT22;8072;52.554;7.966;2023-06-26T04:02:34;20.00;99.90
15947;DHT22;8072;52.554;7.966;2023-06-26T04:05:01;20.10;99.90
15947;DHT22;8072;52.554;7.966;2023-06-26T04:07:27;20.10;99.90
15947;DHT22;8072;52.554;7.966;2023-06-26T04:09:52;20.10;99.90
15947;DHT22;8072;52.554;7.966;2023-06-26T04:12:18;20.10;99.90
15947;DHT22;8072;52.554;7.966;2023-06-26T04:14:44;20.10;99.90
15947;DHT22;8072;52.554;7.966;2023-06-26T04:17:10;20.10;99.90
15947;DHT22;8072;52.554;7.966;2023-06-26T04:19:36;20.10;99.90
15947;DHT22;8072;52.554;7.966;2023-06-26T04:22:02;20.10;99.90
15947;DHT22;8072;52.554;7.966;2023-06-26T04:24:28;20.10;99.90
15947;DHT22;8072;52.554;7.966;2023-06-26T04:26:53;20.10;99.90
15947;DHT22;8072;52.554;7.966;2023-06-26T04:29:23;20.20;99.90
15947;DHT22;8072;52.554;7.966;2023-06-26T04:31:54;20.20;99.90
15947;DHT22;8072;52.554;7.966;2023-06-26T04:34:27;20.20;99.90
15947;DHT22;8072;52.554;7.966;2023-06-26T04:36:53;20.20;99.90
15947;DHT22;8072;52.554;7.966;2023-06-26T04:39:18;20.20;99.90
15947;DHT22;8072;52.554;7.966;2023-06-26T04:41:45;20.30;99.90
15947;DHT22;8072;52.554;7.966;2023-06-26T04:44:11;20.40;99.90
15947;DHT22;8072;52.554;7.966;2023-06-26T04:46:37;20.40;99.90
15947;DHT22;8072;52.554;7.966;2023-06-26T04:49:07;20.40;99.90
15947;DHT22;8072;52.554;7.966;2023-06-26T04:51:33;20.50;99.90
15947;DHT22;8072;52.554;7.966;2023-06-26T04:53:59;20.60;99.90
15947;DHT22;8072;52.554;7.966;2023-06-26T04:56:25;20.70;99.90
15947;DHT22;8072;52.554;7.966;2023-06-26T04:58:50;20.80;99.90
15947;DHT22;8072;52.554;7.966;2023-06-26T05:01:16;20.80;99.90
15947;DHT22;8072;52.554;7.966;2023-06-26T05:03:42;20.90;99.90
15947;DHT22;8072;52.554;7.966;2023-06-26T05:06:08;20.90;99.90
15947;DHT22;8072;52.554;7.966;2023-06-26T05:08:34;20.90;99.90
15947;DHT22;8072;52.554;7.966;2023-06-26T05:11:00;21.10;99.90
15947;DHT22;8072;52.554;7.966;2023-06-26T05:13:25;21.10;99.90
15947;DHT22;8072;52.554;7.966;2023-06-26T05:15:52;21.20;99.90
15947;DHT22;8072;52.554;7.966;2023-06-26T05:18:19;21.20;99.90
15947;DHT22;8072;52.554;7.966;2023-06-26T05:20:45;21.30;99.90
15947;DHT22;8072;52.554;7.966;2023-06-26T05:23:11;21.40;99.90
15947;DHT22;8072;52.554;7.966;2023-06-26T05:25:38;21.60;99.90
15947;DHT22;8072;52.554;7.966;2023-06-26T05:28:04;21.70;99.90
15947;DHT22;8072;52.554;7.966;2023-06-26T05:30:31;21.70;99.90
15947;DHT22;8072;52.554;7.966;2023-06-26T05:33:00;21.90;99.90
15947;DHT22;8072;52.554;7.966;2023-06-26T05:35:28;22.00;99.90
15947;DHT22;8072;52.554;7.966;2023-06-26T05:37:56;22.00;99.90
15947;DHT22;8072;52.554;7.966;2023-06-26T05:40:23;22.00;99.90
15947;DHT22;8072;52.554;7.966;2023-06-26T05:42:49;22.10;99.90
15947;DHT22;8072;52.554;7.966;2023-06-26T05:45:15;22.10;99.90
15947;DHT22;8072;52.554;7.966;2023-06-26T05:47:41;22.20;99.90
15947;DHT22;8072;52.554;7.966;2023-06-26T05:50:09;22.20;99.90
15947;DHT22;8072;52.554;7.966;2023-06-26T05:52:36;22.30;99.90
15947;DHT22;8072;52.554;7.966;2023-06-26T05:55:02;22.40;99.90
15947;DHT22;8072;52.554;7.966;2023-06-26T05:57:29;22.40;99.90
15947;DHT22;8072;52.554;7.966;2023-06-26T05:59:55;22.40;99.90
15947;DHT22;8072;52.554;7.966;2023-06-26T06:02:22;22.50;99.90
15947;DHT22;8072;52.554;7.966;2023-06-26T06:04:48;22.50;99.90
15947;DHT22;8072;52.554;7.966;2023-06-26T06:07:14;22.60;99.90
15947;DHT22;8072;52.554;7.966;2023-06-26T06:09:39;22.60;99.90
15947;DHT22;8072;52.554;7.966;2023-06-26T06:12:06;22.60;99.90
15947;DHT22;8072;52.554;7.966;2023-06-26T06:14:33;22.60;99.90
15947;DHT22;8072;52.554;7.966;2023-06-26T06:16:59;22.60;99.90
15947;DHT22;8072;52.554;7.966;2023-06-26T06:19:25;22.60;99.90
15947;DHT22;8072;52.554;7.966;2023-06-26T06:21:50;22.70;99.90
15947;DHT22;8072;52.554;7.966;2023-06-26T06:24:16;22.70;99.90
15947;DHT22;8072;52.554;7.966;2023-06-26T06:26:42;22.80;99.90
15947;DHT22;8072;52.554;7.966;2023-06-26T06:29:08;22.90;99.90
15947;DHT22;8072;52.554;7.966;2023-06-26T06:31:34;22.90;99.90
15947;DHT22;8072;52.554;7.966;2023-06-26T06:34:00;23.00;99.90
15947;DHT22;8072;52.554;7.966;2023-06-26T06:36:25;23.00;99.90
15947;DHT22;8072;52.554;7.966;2023-06-26T06:38:51;23.00;99.90
15947;DHT22;8072;52.554;7.966;2023-06-26T06:41:17;23.10;99.90
15947;DHT22;8072;52.554;7.966;2023-06-26T06:43:43;23.10;99.90
15947;DHT22;8072;52.554;7.966;2023-06-26T06:46:09;23.10;99.90
15947;DHT22;8072;52.554;7.966;2023-06-26T06:48:35;23.20;99.90
15947;DHT22;8072;52.554;7.966;2023-06-26T06:51:01;23.20;99.90
15947;DHT22;8072;52.554;7.966;2023-06-26T06:53:27;23.30;99.90
15947;DHT22;8072;52.554;7.966;2023-06-26T06:55:53;23.30;99.90
15947;DHT22;8072;52.554;7.966;2023-06-26T06:58:18;23.30;99.90
15947;DHT22;8072;52.554;7.966;2023-06-26T07:00:45;23.30;99.90
15947;DHT22;8072;52.554;7.966;2023-06-26T07:03:11;23.40;99.90
15947;DHT22;8072;52.554;7.966;2023-06-26T07:05:37;23.50;99.90
15947;DHT22;8072;52.554;7.966;2023-06-26T07:08:03;23.50;99.90
15947;DHT22;8072;52.554;7.966;2023-06-26T07:10:29;23.50;99.90
15947;DHT22;8072;52.554;7.966;2023-06-26T07:12:55;23.40;99.90
15947;DHT22;8072;52.554;7.966;2023-06-26T07:15:21;23.40;99.90
15947;DHT22;8072;52.554;7.966;2023-06-26T07:17:46;23.40;99.90
15947;DHT22;8072;52.554;7.966;2023-06-26T07:20:12;23.40;99.90
15947;DHT22;8072;52.554;7.966;2023-06-26T07:22:41;23.40;99.90
15947;DHT22;8072;52.554;7.966;2023-06-26T07:25:08;23.30;99.90
15947;DHT22;8072;52.554;7.966;2023-06-26T07:27:38;23.30;99.90
15947;DHT22;8072;52.554;7.966;2023-06-26T07:30:04;23.20;99.90
15947;DHT22;8072;52.554;7.966;2023-06-26T07:32:30;23.20;99.90
15947;DHT22;8072;52.554;7.966;2023-06-26T07:34:56;22.90;99.90
15947;DHT22;8072;52.554;7.966;2023-06-26T07:37:22;22.80;99.90
15947;DHT22;8072;52.554;7.966;2023-06-26T07:39:49;22.50;99.90
15947;DHT22;8072;52.554;7.966;2023-06-26T07:42:15;22.20;99.90
15947;DHT22;8072;52.554;7.966;2023-06-26T07:44:42;21.90;99.90
15947;DHT22;8072;52.554;7.966;2023-06-26T07:47:08;21.80;99.90
15947;DHT22;8072;52.554;7.966;2023-06-26T07:49:34;21.60;99.90
15947;DHT22;8072;52.554;7.966;2023-06-26T07:52:00;21.60;99.90
15947;DHT22;8072;52.554;7.966;2023-06-26T07:54:26;21.60;99.90
15947;DHT22;8072;52.554;7.966;2023-06-26T07:57:02;21.60;99.90
15947;DHT22;8072;52.554;7.966;2023-06-26T07:59:29;21.60;99.90
15947;DHT22;8072;52.554;7.966;2023-06-26T08:01:57;21.60;99.90
15947;DHT22;8072;52.554;7.966;2023-06-26T08:04:24;21.70;99.90
15947;DHT22;8072;52.554;7.966;2023-06-26T08:06:53;21.70;99.90
15947;DHT22;8072;52.554;7.966;2023-06-26T08:09:21;21.80;99.90
15947;DHT22;8072;52.554;7.966;2023-06-26T08:11:48;21.80;99.90
15947;DHT22;8072;52.554;7.966;2023-06-26T08:14:15;21.90;99.90
15947;DHT22;8072;52.554;7.966;2023-06-26T08:16:42;22.00;99.90
15947;DHT22;8072;52.554;7.966;2023-06-26T08:19:13;22.00;99.90
15947;DHT22;8072;52.554;7.966;2023-06-26T08:21:40;22.00;99.90
15947;DHT22;8072;52.554;7.966;2023-06-26T08:24:06;22.00;99.90
15947;DHT22;8072;52.554;7.966;2023-06-26T08:26:32;22.10;99.90
15947;DHT22;8072;52.554;7.966;2023-06-26T08:29:01;22.20;99.90
15947;DHT22;8072;52.554;7.966;2023-06-26T08:31:33;22.30;99.90
15947;DHT22;8072;52.554;7.966;2023-06-26T08:34:00;22.40;99.90
15947;DHT22;8072;52.554;7.966;2023-06-26T08:36:26;22.50;99.90
15947;DHT22;8072;52.554;7.966;2023-06-26T08:38:52;22.60;99.90
15947;DHT22;8072;52.554;7.966;2023-06-26T08:44:40;22.70;99.90
15947;DHT22;8072;52.554;7.966;2023-06-26T08:47:06;22.70;99.90
15947;DHT22;8072;52.554;7.966;2023-06-26T08:49:46;22.70;99.90
15947;DHT22;8072;52.554;7.966;2023-06-26T08:52:23;22.80;99.90
15947;DHT22;8072;52.554;7.966;2023-06-26T08:54:55;22.80;99.90
15947;DHT22;8072;52.554;7.966;2023-06-26T08:57:23;22.80;99.90
15947;DHT22;8072;52.554;7.966;2023-06-26T08:59:49;22.90;99.90
15947;DHT22;8072;52.554;7.966;2023-06-26T09:02:15;22.90;99.90
15947;DHT22;8072;52.554;7.966;2023-06-26T09:04:41;23.00;99.90
15947;DHT22;8072;52.554;7.966;2023-06-26T09:07:07;23.10;99.90
15947;DHT22;8072;52.554;7.966;2023-06-26T09:09:33;23.20;99.90
15947;DHT22;8072;52.554;7.966;2023-06-26T09:11:59;23.30;99.90
15947;DHT22;8072;52.554;7.966;2023-06-26T09:14:26;23.30;99.90
15947;DHT22;8072;52.554;7.966;2023-06-26T09:16:54;23.40;99.90
15947;DHT22;8072;52.554;7.966;2023-06-26T09:19:19;23.50;99.90
15947;DHT22;8072;52.554;7.966;2023-06-26T09:21:49;23.50;99.90
15947;DHT22;8072;52.554;7.966;2023-06-26T09:24:16;23.50;99.90
15947;DHT22;8072;52.554;7.966;2023-06-26T09:26:42;23.60;99.90
15947;DHT22;8072;52.554;7.966;2023-06-26T09:29:09;23.70;99.90
15947;DHT22;8072;52.554;7.966;2023-06-26T09:31:38;23.80;99.90
15947;DHT22;8072;52.554;7.966;2023-06-26T09:34:04;23.80;99.90
15947;DHT22;8072;52.554;7.966;2023-06-26T09:36:31;23.80;99.90
15947;DHT22;8072;52.554;7.966;2023-06-26T09:39:07;23.80;99.90
15947;DHT22;8072;52.554;7.966;2023-06-26T09:41:36;23.80;99.90
15947;DHT22;8072;52.554;7.966;2023-06-26T09:44:03;24.00;99.90
15947;DHT22;8072;52.554;7.966;2023-06-26T09:46:31;24.10;99.90
15947;DHT22;8072;52.554;7.966;2023-06-26T09:49:05;24.10;99.90
15947;DHT22;8072;52.554;7.966;2023-06-26T09:51:32;24.10;99.90
15947;DHT22;8072;52.554;7.966;2023-06-26T09:53:58;24.10;99.90
15947;DHT22;8072;52.554;7.966;2023-06-26T09:56:24;24.10;99.90
15947;DHT22;8072;52.554;7.966;2023-06-26T09:58:50;24.10;99.90
15947;DHT22;8072;52.554;7.966;2023-06-26T10:01:19;24.30;99.90
15947;DHT22;8072;52.554;7.966;2023-06-26T10:03:44;24.50;99.90
15947;DHT22;8072;52.554;7.966;2023-06-26T10:06:11;24.50;99.90
15947;DHT22;8072;52.554;7.966;2023-06-26T10:08:39;24.40;99.90
15947;DHT22;8072;52.554;7.966;2023-06-26T10:11:08;24.40;99.90
15947;DHT22;8072;52.554;7.966;2023-06-26T10:13:38;24.30;99.90
15947;DHT22;8072;52.554;7.966;2023-06-26T10:16:07;24.40;99.90
15947;DHT22;8072;52.554;7.966;2023-06-26T10:18:33;24.50;99.90
15947;DHT22;8072;52.554;7.966;2023-06-26T10:21:01;24.50;99.90
15947;DHT22;8072;52.554;7.966;2023-06-26T10:23:30;24.40;99.90
15947;DHT22;8072;52.554;7.966;2023-06-26T10:25:58;24.40;99.90
15947;DHT22;8072;52.554;7.966;2023-06-26T10:28:26;24.40;99.90
15947;DHT22;8072;52.554;7.966;2023-06-26T10:30:54;24.40;99.90
15947;DHT22;8072;52.554;7.966;2023-06-26T10:33:20;24.50;99.90
15947;DHT22;8072;52.554;7.966;2023-06-26T10:35:47;24.60;99.90
15947;DHT22;8072;52.554;7.966;2023-06-26T10:38:13;24.50;99.90
15947;DHT22;8072;52.554;7.966;2023-06-26T10:40:46;24.50;99.90
15947;DHT22;8072;52.554;7.966;2023-06-26T10:43:15;24.40;99.90
15947;DHT22;8072;52.554;7.966;2023-06-26T10:45:49;24.40;99.90
15947;DHT22;8072;52.554;7.966;2023-06-26T10:48:20;24.50;99.90
15947;DHT22;8072;52.554;7.966;2023-06-26T10:50:49;24.40;99.90
15947;DHT22;8072;52.554;7.966;2023-06-26T10:56:04;24.20;99.90
15947;DHT22;8072;52.554;7.966;2023-06-26T11:03:39;24.30;99.90
15947;DHT22;8072;52.554;7.966;2023-06-26T11:06:11;24.60;99.90
15947;DHT22;8072;52.554;7.966;2023-06-26T11:14:25;25.10;99.90
15947;DHT22;8072;52.554;7.966;2023-06-26T11:16:51;25.10;99.90
15947;DHT22;8072;52.554;7.966;2023-06-26T11:19:17;25.00;99.90
15947;DHT22;8072;52.554;7.966;2023-06-26T11:21:44;25.00;99.90
15947;DHT22;8072;52.554;7.966;2023-06-26T11:24:13;25.00;99.90
15947;DHT22;8072;52.554;7.966;2023-06-26T11:26:43;24.80;99.90
15947;DHT22;8072;52.554;7.966;2023-06-26T11:29:10;24.80;99.90
15947;DHT22;8072;52.554;7.966;2023-06-26T11:31:37;24.80;99.90
15947;DHT22;8072;52.554;7.966;2023-06-26T11:34:05;25.00;99.90
15947;DHT22;8072;52.554;7.966;2023-06-26T11:36:33;25.20;99.90
15947;DHT22;8072;52.554;7.966;2023-06-26T11:39:04;25.10;99.90
15947;DHT22;8072;52.554;7.966;2023-06-26T11:41:38;25.10;99.90
15947;DHT22;8072;52.554;7.966;2023-06-26T11:44:09;25.10;99.90
15947;DHT22;8072;52.554;7.966;2023-06-26T11:46:36;25.00;99.90
15947;DHT22;8072;52.554;7.966;2023-06-26T11:49:06;24.80;99.90
15947;DHT22;8072;52.554;7.966;2023-06-26T11:51:32;24.90;99.90
15947;DHT22;8072;52.554;7.966;2023-06-26T11:54:01;25.10;99.90
15947;DHT22;8072;52.554;7.966;2023-06-26T11:56:28;25.30;99.90
15947;DHT22;8072;52.554;7.966;2023-06-26T11:59:07;25.30;99.90
15947;DHT22;8072;52.554;7.966;2023-06-26T12:01:41;25.10;99.90
15947;DHT22;8072;52.554;7.966;2023-06-26T12:04:09;25.00;99.90
15947;DHT22;8072;52.554;7.966;2023-06-26T12:06:37;24.90;99.90
15947;DHT22;8072;52.554;7.966;2023-06-26T12:09:06;25.00;99.90
15947;DHT22;8072;52.554;7.966;2023-06-26T12:11:35;24.90;99.90
15947;DHT22;8072;52.554;7.966;2023-06-26T12:14:01;25.00;99.90
15947;DHT22;8072;52.554;7.966;2023-06-26T12:16:29;25.00;99.90
15947;DHT22;8072;52.554;7.966;2023-06-26T12:19:03;25.20;99.90
15947;DHT22;8072;52.554;7.966;2023-06-26T12:24:13;25.10;99.90
15947;DHT22;8072;52.554;7.966;2023-06-26T12:26:43;25.10;99.90
15947;DHT22;8072;52.554;7.966;2023-06-26T12:29:14;25.10;99.90
15947;DHT22;8072;52.554;7.966;2023-06-26T12:31:42;24.90;99.90
15947;DHT22;8072;52.554;7.966;2023-06-26T12:34:12;24.60;99.90
15947;DHT22;8072;52.554;7.966;2023-06-26T12:36:43;24.40;99.90
15947;DHT22;8072;52.554;7.966;2023-06-26T12:39:10;24.20;99.90
15947;DHT22;8072;52.554;7.966;2023-06-26T12:41:52;24.00;99.90
15947;DHT22;8072;52.554;7.966;2023-06-26T12:44:30;24.10;99.90
15947;DHT22;8072;52.554;7.966;2023-06-26T12:47:01;24.10;99.90
15947;DHT22;8072;52.554;7.966;2023-06-26T12:49:34;24.20;99.90
15947;DHT22;8072;52.554;7.966;2023-06-26T12:52:01;24.10;99.90
15947;DHT22;8072;52.554;7.966;2023-06-26T12:54:28;24.20;99.90
15947;DHT22;8072;52.554;7.966;2023-06-26T12:56:54;24.20;99.90
15947;DHT22;8072;52.554;7.966;2023-06-26T12:59:20;24.10;99.90
15947;DHT22;8072;52.554;7.966;2023-06-26T13:01:47;24.10;99.90
15947;DHT22;8072;52.554;7.966;2023-06-26T13:04:12;24.10;99.90
15947;DHT22;8072;52.554;7.966;2023-06-26T13:06:38;24.20;99.90
15947;DHT22;8072;52.554;7.966;2023-06-26T13:09:04;24.40;99.90
15947;DHT22;8072;52.554;7.966;2023-06-26T13:11:30;24.60;99.90
15947;DHT22;8072;52.554;7.966;2023-06-26T13:13:57;24.70;99.90
15947;DHT22;8072;52.554;7.966;2023-06-26T13:16:23;24.90;99.90
15947;DHT22;8072;52.554;7.966;2023-06-26T13:18:48;24.90;99.90
15947;DHT22;8072;52.554;7.966;2023-06-26T13:21:14;24.90;99.90
15947;DHT22;8072;52.554;7.966;2023-06-26T13:23:40;24.90;99.90
15947;DHT22;8072;52.554;7.966;2023-06-26T13:26:07;25.00;99.90
15947;DHT22;8072;52.554;7.966;2023-06-26T13:28:32;25.10;99.90
15947;DHT22;8072;52.554;7.966;2023-06-26T13:30:58;25.30;99.90
15947;DHT22;8072;52.554;7.966;2023-06-26T13:33:24;25.30;99.90
15947;DHT22;8072;52.554;7.966;2023-06-26T13:35:52;25.20;99.90
15947;DHT22;8072;52.554;7.966;2023-06-26T13:38:22;25.00;99.90
15947;DHT22;8072;52.554;7.966;2023-06-26T13:40:52;24.80;99.90
15947;DHT22;8072;52.554;7.966;2023-06-26T13:43:19;24.70;99.90
15947;DHT22;8072;52.554;7.966;2023-06-26T13:45:45;24.70;99.90
15947;DHT22;8072;52.554;7.966;2023-06-26T13:48:11;24.60;99.90
15947;DHT22;8072;52.554;7.966;2023-06-26T13:50:37;24.60;99.90
15947;DHT22;8072;52.554;7.966;2023-06-26T13:53:02;24.70;99.90
15947;DHT22;8072;52.554;7.966;2023-06-26T13:55:28;24.90;99.90
15947;DHT22;8072;52.554;7.966;2023-06-26T13:57:54;25.10;99.90
15947;DHT22;8072;52.554;7.966;2023-06-26T14:00:21;25.00;99.90
15947;DHT22;8072;52.554;7.966;2023-06-26T14:02:51;24.80;99.90
15947;DHT22;8072;52.554;7.966;2023-06-26T14:05:17;24.70;99.90
15947;DHT22;8072;52.554;7.966;2023-06-26T14:07:44;24.70;99.90
15947;DHT22;8072;52.554;7.966;2023-06-26T14:10:10;24.50;99.90
15947;DHT22;8072;52.554;7.966;2023-06-26T14:12:36;24.40;99.90
15947;DHT22;8072;52.554;7.966;2023-06-26T14:15:02;24.10;99.90
15947;DHT22;8072;52.554;7.966;2023-06-26T14:17:28;24.00;99.90
15947;DHT22;8072;52.554;7.966;2023-06-26T14:19:55;23.80;99.90
15947;DHT22;8072;52.554;7.966;2023-06-26T14:22:21;23.80;99.90
15947;DHT22;8072;52.554;7.966;2023-06-26T14:24:49;23.80;99.90
15947;DHT22;8072;52.554;7.966;2023-06-26T14:27:14;23.70;99.90
15947;DHT22;8072;52.554;7.966;2023-06-26T14:29:40;23.70;99.90
15947;DHT22;8072;52.554;7.966;2023-06-26T14:32:06;23.70;99.90
15947;DHT22;8072;52.554;7.966;2023-06-26T14:34:32;23.70;99.90
15947;DHT22;8072;52.554;7.966;2023-06-26T14:36:58;23.80;99.90
15947;DHT22;8072;52.554;7.966;2023-06-26T14:39:24;23.80;99.90
15947;DHT22;8072;52.554;7.966;2023-06-26T14:41:50;23.80;99.90
15947;DHT22;8072;52.554;7.966;2023-06-26T14:44:16;23.80;99.90
15947;DHT22;8072;52.554;7.966;2023-06-26T14:46:41;23.80;99.90
15947;DHT22;8072;52.554;7.966;2023-06-26T14:49:07;23.70;99.90
15947;DHT22;8072;52.554;7.966;2023-06-26T14:51:33;23.70;99.90
15947;DHT22;8072;52.554;7.966;2023-06-26T14:54:00;23.60;99.90
15947;DHT22;8072;52.554;7.966;2023-06-26T14:56:26;23.50;99.90
15947;DHT22;8072;52.554;7.966;2023-06-26T14:58:52;23.40;99.90
15947;DHT22;8072;52.554;7.966;2023-06-26T15:01:19;23.30;99.90
15947;DHT22;8072;52.554;7.966;2023-06-26T15:03:48;23.20;99.90
15947;DHT22;8072;52.554;7.966;2023-06-26T15:06:14;23.10;99.90
15947;DHT22;8072;52.554;7.966;2023-06-26T15:08:40;23.10;99.90
15947;DHT22;8072;52.554;7.966;2023-06-26T15:11:06;23.10;99.90
15947;DHT22;8072;52.554;7.966;2023-06-26T15:13:31;23.10;99.90
15947;DHT22;8072;52.554;7.966;2023-06-26T15:15:57;23.10;99.90
15947;DHT22;8072;52.554;7.966;2023-06-26T15:18:23;23.20;99.90
15947;DHT22;8072;52.554;7.966;2023-06-26T15:20:49;23.20;99.90
15947;DHT22;8072;52.554;7.966;2023-06-26T15:23:14;23.30;99.90
15947;DHT22;8072;52.554;7.966;2023-06-26T15:25:40;23.30;99.90
15947;DHT22;8072;52.554;7.966;2023-06-26T15:28:06;23.30;99.90
15947;DHT22;8072;52.554;7.966;2023-06-26T15:30:32;23.30;99.90
15947;DHT22;8072;52.554;7.966;2023-06-26T15:32:58;23.20;99.90
15947;DHT22;8072;52.554;7.966;2023-06-26T15:35:24;23.20;99.90
15947;DHT22;8072;52.554;7.966;2023-06-26T15:37:53;23.20;99.90
15947;DHT22;8072;52.554;7.966;2023-06-26T15:40:20;23.30;99.90
15947;DHT22;8072;52.554;7.966;2023-06-26T15:42:50;23.40;99.90
15947;DHT22;8072;52.554;7.966;2023-06-26T15:45:16;23.50;99.90
15947;DHT22;8072;52.554;7.966;2023-06-26T15:47:48;23.60;99.90
15947;DHT22;8072;52.554;7.966;2023-06-26T15:50:14;23.70;99.90
15947;DHT22;8072;52.554;7.966;2023-06-26T15:52:40;23.70;99.90
15947;DHT22;8072;52.554;7.966;2023-06-26T15:55:06;23.60;99.90
15947;DHT22;8072;52.554;7.966;2023-06-26T15:57:32;23.30;99.90
15947;DHT22;8072;52.554;7.966;2023-06-26T15:59:58;23.10;99.90
15947;DHT22;8072;52.554;7.966;2023-06-26T16:02:25;22.90;99.90
15947;DHT22;8072;52.554;7.966;2023-06-26T16:04:51;22.80;99.90
15947;DHT22;8072;52.554;7.966;2023-06-26T16:07:16;22.70;99.90
15947;DHT22;8072;52.554;7.966;2023-06-26T16:09:42;22.70;99.90